Time;durP1;ratioP1;P1;durP2;ratioP2;P2;SDS_P1;SDS_P2;PMS_P1;PMS_P2;Temp;Humidity;BMP_temperature;BMP_pressure;BME280_temperature;BME280_humidity;BME280_pressure;Samples;Min_cycle;Max_cycle;Signal;HPM_P1;HPM_P2
2024/04/19 00:00:03;;;;;;;10.03;2.50;;;7.70;99.90;;;;;;5177069;22;38387;-80
2024/04/19 00:02:29;;;;;;;8.27;2.30;;;7.70;99.90;;;;;;5172059;27;38426;-81
2024/04/19 00:04:57;;;;;;;6.60;2.17;;;7.80;99.90;;;;;;5177094;27;39516;-81
2024/04/19 00:07:23;;;;;;;8.90;2.60;;;7.70;99.90;;;;;;5172316;27;38026;-80
2024/04/19 00:09:49;;;;;;;9.03;1.83;;;7.70;99.90;;;;;;5174917;27;37311;-80
2024/04/19 00:12:21;;;;;;;5.50;2.03;;;7.70;99.90;;;;;;5168541;27;38719;-81
2024/04/19 00:14:47;;;;;;;6.78;1.98;;;7.70;99.90;;;;;;5181008;27;38106;-81
2024/04/19 00:17:14;;;;;;;10.97;1.73;;;7.70;99.90;;;;;;5176149;27;40679;-80
2024/04/19 00:19:42;;;;;;;9.03;1.83;;;7.70;99.90;;;;;;5174543;27;38200;-82
2024/04/19 00:22:14;;;;;;;6.53;1.93;;;7.70;99.90;;;;;;5172969;27;39296;-81
2024/04/19 00:24:40;;;;;;;8.23;2.30;;;7.70;99.90;;;;;;5165004;27;39787;-81
2024/04/19 00:27:06;;;;;;;6.97;2.20;;;7.80;99.90;;;;;;5175474;27;40835;-81
2024/04/19 00:29:34;;;;;;;5.30;2.03;;;7.80;99.90;;;;;;5171951;27;36422;-81
2024/04/19 00:32:06;;;;;;;6.77;3.30;;;7.90;99.90;;;;;;5173275;27;37879;-80
2024/04/19 00:34:33;;;;;;;10.80;2.33;;;7.90;99.90;;;;;;5172129;27;49527;-81
2024/04/19 00:36:59;;;;;;;7.30;2.23;;;7.90;99.90;;;;;;5171941;27;38222;-81
2024/04/19 00:39:25;;;;;;;6.70;2.20;;;7.90;99.90;;;;;;5177410;27;38191;-81
2024/04/19 00:41:51;;;;;;;8.90;2.53;;;7.90;99.90;;;;;;5168825;27;37476;-81
2024/04/19 00:44:18;;;;;;;11.73;2.70;;;7.90;99.90;;;;;;5169170;27;38034;-81
2024/04/19 00:46:46;;;;;;;7.97;2.83;;;7.90;99.90;;;;;;5167955;27;39561;-80
2024/04/19 00:49:12;;;;;;;14.07;2.80;;;7.90;99.90;;;;;;5196203;27;38712;-81
2024/04/19 00:51:38;;;;;;;8.57;2.70;;;7.90;99.90;;;;;;5164651;27;40089;-80
2024/04/19 00:54:04;;;;;;;11.57;2.93;;;7.90;99.90;;;;;;5156332;27;37007;-80
2024/04/19 00:56:31;;;;;;;13.70;3.07;;;7.90;99.90;;;;;;5149009;27;37356;-80
2024/04/19 00:58:57;;;;;;;14.00;2.97;;;7.90;99.90;;;;;;5154619;27;35947;-80
2024/04/19 01:03:59;;;;;;;12.27;2.87;;;7.90;99.90;;;;;;3076058;22;20037;-79
2024/04/19 01:06:26;;;;;;;19.03;3.30;;;8.00;99.90;;;;;;5169594;27;38646;-79
2024/04/19 01:08:52;;;;;;;10.47;3.03;;;8.00;99.90;;;;;;5186917;27;37194;-79
2024/04/19 01:11:18;;;;;;;9.30;2.97;;;7.90;99.90;;;;;;5181383;27;40686;-80
2024/04/19 01:13:48;;;;;;;10.77;3.50;;;7.90;99.90;;;;;;5193552;27;39067;-80
2024/04/19 01:16:14;;;;;;;14.67;3.97;;;8.00;99.90;;;;;;5195013;27;37247;-80
2024/04/19 01:18:40;;;;;;;11.40;3.67;;;7.90;99.90;;;;;;5183760;27;37481;-80
2024/04/19 01:21:08;;;;;;;10.70;3.57;;;8.00;99.90;;;;;;5192012;27;37891;-80
2024/04/19 01:23:36;;;;;;;12.03;4.13;;;8.00;99.90;;;;;;5185291;27;38770;-80
2024/04/19 01:26:04;;;;;;;13.07;4.10;;;8.00;99.90;;;;;;5183964;27;36924;-80
2024/04/19 01:28:31;;;;;;;12.17;3.97;;;8.00;99.90;;;;;;5190800;27;38381;-80
2024/04/19 01:30:57;;;;;;;14.57;4.77;;;8.00;99.90;;;;;;5193810;27;39653;-81
2024/04/19 01:33:23;;;;;;;8.47;4.00;;;8.00;99.90;;;;;;5186724;27;39299;-80
2024/04/19 01:35:51;;;;;;;8.43;4.30;;;8.00;99.90;;;;;;5187439;27;38694;-80
2024/04/19 01:38:17;;;;;;;7.50;3.93;;;8.00;99.90;;;;;;5164701;27;37930;-81
2024/04/19 01:40:43;;;;;;;14.03;5.30;;;8.10;99.90;;;;;;5185967;27;39196;-81
2024/04/19 01:43:09;;;;;;;16.77;5.13;;;8.10;99.90;;;;;;5186718;27;38123;-80
2024/04/19 01:45:35;;;;;;;15.00;5.20;;;8.10;99.90;;;;;;5189811;27;36900;-80
2024/04/19 01:48:01;;;;;;;12.50;4.50;;;8.10;99.90;;;;;;5204946;27;37007;-82
2024/04/19 01:50:27;;;;;;;10.83;4.23;;;8.10;99.90;;;;;;5188904;27;48666;-80
2024/04/19 01:52:56;;;;;;;14.00;4.67;;;8.10;99.90;;;;;;5184618;27;36804;-80
2024/04/19 01:55:22;;;;;;;14.10;4.30;;;8.10;99.90;;;;;;5185696;27;38228;-80
2024/04/19 01:57:48;;;;;;;13.40;4.73;;;8.10;99.90;;;;;;5183255;27;37334;-81
2024/04/19 02:00:15;;;;;;;11.40;3.87;;;8.20;99.90;;;;;;5182298;27;38846;-80
2024/04/19 02:02:41;;;;;;;10.70;4.73;;;8.20;99.90;;;;;;5179153;27;36836;-79
2024/04/19 02:05:07;;;;;;;9.97;4.37;;;8.20;99.90;;;;;;5170186;27;39626;-79
2024/04/19 02:07:33;;;;;;;9.60;3.83;;;8.20;99.90;;;;;;5186273;27;36097;-80
2024/04/19 02:09:59;;;;;;;9.70;4.37;;;8.30;99.90;;;;;;5186744;27;38703;-79
2024/04/19 02:12:25;;;;;;;14.87;4.83;;;8.30;99.90;;;;;;5180792;27;36909;-80
2024/04/19 02:14:53;;;;;;;16.20;4.43;;;8.30;99.90;;;;;;5183948;27;37989;-80
2024/04/19 02:17:19;;;;;;;13.10;5.97;;;8.30;99.90;;;;;;5184580;27;36952;-80
2024/04/19 02:19:45;;;;;;;11.40;4.00;;;8.30;99.90;;;;;;5185336;27;39208;-81
2024/04/19 02:22:11;;;;;;;12.57;4.47;;;8.40;99.90;;;;;;5192247;27;38736;-80
2024/04/19 02:24:37;;;;;;;12.47;3.67;;;8.30;99.90;;;;;;5180993;27;39577;-79
2024/04/19 02:27:17;;;;;;;12.57;5.23;;;8.40;99.90;;;;;;5182491;27;36042;-80
2024/04/19 02:32:28;;;;;;;11.30;4.37;;;8.40;99.90;;;;;;5193395;27;38970;-80
2024/04/19 02:34:54;;;;;;;11.03;3.50;;;8.50;99.90;;;;;;5188053;27;39336;-80
2024/04/19 02:37:20;;;;;;;9.57;3.50;;;8.40;99.90;;;;;;5183660;27;38004;-79
2024/04/19 02:39:49;;;;;;;7.40;2.53;;;8.40;99.90;;;;;;5182569;27;39215;-80
2024/04/19 02:42:16;;;;;;;9.80;3.20;;;8.40;99.90;;;;;;5178434;27;37327;-79
2024/04/19 02:44:42;;;;;;;11.43;4.07;;;8.50;99.90;;;;;;5176272;27;39909;-79
2024/04/19 02:47:08;;;;;;;9.77;3.50;;;8.50;99.90;;;;;;5176020;27;37194;-79
2024/04/19 02:49:34;;;;;;;16.90;3.70;;;8.50;99.90;;;;;;5168759;27;37232;-80
2024/04/19 02:52:00;;;;;;;17.83;5.03;;;8.50;99.90;;;;;;5180820;27;36758;-81
2024/04/19 02:54:26;;;;;;;11.00;4.43;;;8.50;99.90;;;;;;5194263;27;37998;-80
2024/04/19 02:56:52;;;;;;;12.83;4.50;;;8.50;99.90;;;;;;5193101;27;37913;-80
2024/04/19 02:59:19;;;;;;;9.87;4.13;;;8.50;99.90;;;;;;5198195;27;40164;-78
2024/04/19 03:01:45;;;;;;;12.17;5.23;;;8.60;99.90;;;;;;5199338;27;37544;-80
2024/04/19 03:04:11;;;;;;;21.73;5.67;;;8.60;99.90;;;;;;5191429;27;38090;-81
2024/04/19 03:06:37;;;;;;;16.53;6.10;;;8.70;99.90;;;;;;5198096;27;37627;-81
2024/04/19 03:09:04;;;;;;;15.07;7.17;;;8.70;99.90;;;;;;5199099;27;37600;-81
2024/04/19 03:11:31;;;;;;;16.30;6.67;;;8.70;99.90;;;;;;5197915;27;38513;-80
2024/04/19 03:13:57;;;;;;;22.63;8.80;;;8.80;99.90;;;;;;5199442;27;39198;-81
2024/04/19 03:16:23;;;;;;;14.63;7.43;;;8.80;99.90;;;;;;5199313;27;36473;-80
2024/04/19 03:18:49;;;;;;;24.67;8.03;;;8.80;99.90;;;;;;5199334;27;39036;-80
2024/04/19 03:21:15;;;;;;;21.80;9.03;;;8.80;99.90;;;;;;5190509;27;39967;-80
2024/04/19 03:23:41;;;;;;;21.07;9.30;;;8.90;99.90;;;;;;5170476;27;36934;-80
2024/04/19 03:26:08;;;;;;;21.33;9.83;;;8.90;99.90;;;;;;5187069;27;37599;-80
2024/04/19 03:28:34;;;;;;;19.50;9.77;;;8.90;99.90;;;;;;5189753;27;39060;-80
2024/04/19 03:31:00;;;;;;;28.17;13.20;;;9.00;99.90;;;;;;5188113;27;38242;-80
2024/04/19 03:33:26;;;;;;;34.20;13.20;;;9.00;99.90;;;;;;5188120;27;37881;-80
2024/04/19 03:35:52;;;;;;;30.67;11.47;;;9.00;99.90;;;;;;5188485;27;37758;-80
2024/04/19 03:38:19;;;;;;;25.80;12.53;;;9.00;99.90;;;;;;5189229;27;40692;-81
2024/04/19 03:40:55;;;;;;;25.03;12.17;;;9.10;99.90;;;;;;5188862;27;39895;-81
2024/04/19 03:43:23;;;;;;;23.53;11.90;;;9.10;99.90;;;;;;5191733;27;39750;-79
2024/04/19 03:45:49;;;;;;;27.47;12.03;;;9.10;99.90;;;;;;5189596;27;37640;-79
2024/04/19 03:48:16;;;;;;;36.83;13.17;;;9.10;99.90;;;;;;5187816;27;37554;-80
2024/04/19 03:50:46;;;;;;;25.50;11.80;;;9.10;99.90;;;;;;5185857;27;40010;-79
2024/04/19 03:53:12;;;;;;;32.53;13.70;;;9.10;99.90;;;;;;5184131;27;39213;-80
2024/04/19 03:55:39;;;;;;;25.47;10.70;;;9.20;99.90;;;;;;5185275;27;38307;-80
2024/04/19 03:58:05;;;;;;;23.70;11.07;;;9.20;99.90;;;;;;5185616;27;38632;-80
2024/04/19 04:00:31;;;;;;;23.00;10.43;;;9.20;99.90;;;;;;5188707;27;39066;-78
2024/04/19 04:02:57;;;;;;;28.90;12.10;;;9.30;99.90;;;;;;5190703;27;36950;-79
2024/04/19 04:05:23;;;;;;;20.23;10.73;;;9.30;99.90;;;;;;5184804;27;39065;-79
2024/04/19 04:07:50;;;;;;;35.73;11.70;;;9.30;99.90;;;;;;5189747;27;39117;-79
2024/04/19 04:10:16;;;;;;;38.90;11.97;;;9.30;99.90;;;;;;5186170;27;38346;-79
2024/04/19 04:12:42;;;;;;;31.87;12.73;;;9.40;99.90;;;;;;5184903;27;38643;-80
2024/04/19 04:15:08;;;;;;;26.07;10.50;;;9.40;99.90;;;;;;5173330;27;35326;-79
2024/04/19 04:17:35;;;;;;;21.90;10.17;;;9.40;99.90;;;;;;5175736;27;38516;-79
2024/04/19 04:20:03;;;;;;;21.00;10.33;;;9.40;99.90;;;;;;5180816;27;39012;-79
2024/04/19 04:22:29;;;;;;;20.60;10.37;;;9.40;99.90;;;;;;5185347;27;38880;-79
2024/04/19 04:24:55;;;;;;;22.13;9.40;;;9.40;99.90;;;;;;5175753;27;39187;-79
2024/04/19 04:27:21;;;;;;;30.17;11.77;;;9.50;99.90;;;;;;5185430;27;40437;-79
2024/04/19 04:29:47;;;;;;;25.40;9.67;;;9.50;99.90;;;;;;5183132;27;38064;-79
2024/04/19 04:32:13;;;;;;;24.27;9.73;;;9.50;99.90;;;;;;5175197;27;38980;-80
2024/04/19 04:34:40;;;;;;;24.30;9.23;;;9.50;99.90;;;;;;5185232;27;38209;-80
2024/04/19 04:37:06;;;;;;;20.47;8.83;;;9.50;99.90;;;;;;5178807;27;38642;-79
2024/04/19 04:39:32;;;;;;;22.27;10.38;;;9.50;99.90;;;;;;5182223;27;37435;-78
2024/04/19 04:41:59;;;;;;;23.93;9.70;;;9.60;99.90;;;;;;5176729;27;39698;-79
2024/04/19 04:44:32;;;;;;;18.87;8.97;;;9.60;99.90;;;;;;5185664;27;38814;-80
2024/04/19 04:47:01;;;;;;;25.87;10.20;;;9.60;99.90;;;;;;5180373;27;39741;-79
2024/04/19 04:49:27;;;;;;;26.77;9.47;;;9.60;99.90;;;;;;5180780;27;47296;-79
2024/04/19 04:51:53;;;;;;;27.43;10.00;;;9.60;99.90;;;;;;5179871;27;38215;-80
2024/04/19 04:54:19;;;;;;;23.33;9.27;;;9.60;99.90;;;;;;5185921;27;38095;-79
2024/04/19 04:56:45;;;;;;;24.37;10.00;;;9.70;99.90;;;;;;5183405;27;37476;-79
2024/04/19 04:59:11;;;;;;;16.27;8.60;;;9.70;99.90;;;;;;5181469;27;39105;-80
2024/04/19 05:01:38;;;;;;;20.23;8.77;;;9.60;99.90;;;;;;5189782;27;37733;-80
2024/04/19 05:04:04;;;;;;;20.57;7.97;;;9.60;99.90;;;;;;5183867;27;38272;-79
2024/04/19 05:06:30;;;;;;;22.77;8.13;;;9.70;99.90;;;;;;5183675;27;39274;-79
2024/04/19 05:08:56;;;;;;;21.97;9.30;;;9.70;99.90;;;;;;5181177;27;36918;-79
2024/04/19 05:11:22;;;;;;;26.67;8.00;;;9.70;99.90;;;;;;5179152;27;36359;-79
2024/04/19 05:13:48;;;;;;;18.13;7.68;;;9.70;99.90;;;;;;5181699;27;36917;-79
2024/04/19 05:16:14;;;;;;;15.38;6.93;;;9.70;99.90;;;;;;5180881;27;38080;-79
2024/04/19 05:18:41;;;;;;;17.30;6.72;;;9.70;99.90;;;;;;5177856;27;39659;-79
2024/04/19 05:21:09;;;;;;;18.00;7.13;;;9.80;99.90;;;;;;5171151;27;36944;-80
2024/04/19 05:23:36;;;;;;;17.92;6.70;;;9.80;99.90;;;;;;5174212;27;37857;-80
2024/04/19 05:26:02;;;;;;;18.50;6.45;;;9.80;99.90;;;;;;5189295;27;42610;-78
2024/04/19 05:28:28;;;;;;;17.97;6.67;;;9.80;99.90;;;;;;5189309;27;47742;-79
2024/04/19 05:30:55;;;;;;;15.88;6.97;;;9.80;99.90;;;;;;5191744;27;36678;-80
2024/04/19 05:33:21;;;;;;;16.55;6.78;;;9.90;99.90;;;;;;5197267;27;36159;-79
2024/04/19 05:35:47;;;;;;;19.30;7.35;;;9.90;99.90;;;;;;5182931;27;37591;-79
2024/04/19 05:38:13;;;;;;;17.27;7.87;;;9.80;99.90;;;;;;5177933;27;38473;-79
2024/04/19 05:40:40;;;;;;;18.93;6.43;;;9.90;99.90;;;;;;5184687;27;38420;-79
2024/04/19 05:43:06;;;;;;;18.80;5.93;;;9.90;99.90;;;;;;5181928;27;35706;-80
2024/04/19 05:45:32;;;;;;;18.95;6.40;;;9.90;99.90;;;;;;5187189;27;38600;-80
2024/04/19 05:47:59;;;;;;;15.32;5.53;;;9.90;99.90;;;;;;5175446;27;37037;-80
2024/04/19 05:50:25;;;;;;;19.08;5.47;;;10.00;99.90;;;;;;5157975;27;37195;-79
2024/04/19 05:52:51;;;;;;;16.97;5.73;;;9.90;99.90;;;;;;5179538;27;38088;-80
2024/04/19 05:55:18;;;;;;;17.93;6.37;;;10.00;99.90;;;;;;5178990;27;39133;-81
2024/04/19 05:57:44;;;;;;;17.87;6.57;;;10.00;99.90;;;;;;5180362;27;38531;-80
2024/04/19 06:00:11;;;;;;;15.93;5.80;;;10.00;99.90;;;;;;5184701;27;38180;-80
2024/04/19 06:02:37;;;;;;;16.70;5.57;;;10.00;99.90;;;;;;5181811;27;37827;-80
2024/04/19 06:05:03;;;;;;;14.40;6.03;;;10.00;99.90;;;;;;5184863;27;39651;-80
2024/04/19 06:07:29;;;;;;;16.30;5.60;;;10.00;99.90;;;;;;5190029;27;47464;-81
2024/04/19 06:09:56;;;;;;;14.00;5.68;;;10.00;99.90;;;;;;5188659;27;39824;-80
2024/04/19 06:12:23;;;;;;;15.20;5.83;;;10.00;99.90;;;;;;5179895;27;37709;-79
2024/04/19 06:14:49;;;;;;;14.20;5.27;;;10.10;99.90;;;;;;5180578;27;37608;-80
2024/04/19 06:17:15;;;;;;;15.02;4.75;;;10.10;99.90;;;;;;5186353;27;38977;-81
2024/04/19 06:19:41;;;;;;;13.77;5.50;;;10.00;99.90;;;;;;5179975;27;36677;-81
2024/04/19 06:22:07;;;;;;;15.87;5.73;;;10.00;99.90;;;;;;5179953;27;37794;-80
2024/04/19 06:24:34;;;;;;;12.70;4.20;;;10.10;99.90;;;;;;5188611;27;37457;-80
2024/04/19 06:27:00;;;;;;;16.40;4.37;;;10.10;99.90;;;;;;5188670;27;38879;-81
2024/04/19 06:29:27;;;;;;;12.73;4.25;;;10.10;99.90;;;;;;5194570;27;36619;-80
2024/04/19 06:31:53;;;;;;;14.98;4.22;;;10.20;99.90;;;;;;5186279;27;37344;-80
2024/04/19 06:34:19;;;;;;;15.25;4.55;;;10.10;99.90;;;;;;5192436;27;39263;-81
2024/04/19 06:36:45;;;;;;;13.80;4.10;;;10.20;99.90;;;;;;5204742;27;39696;-81
2024/04/19 06:39:23;;;;;;;11.30;3.03;;;10.20;99.90;;;;;;5197090;27;38867;-80
2024/04/19 06:41:57;;;;;;;11.73;3.93;;;10.20;99.90;;;;;;5197784;27;38701;-80
2024/04/19 06:44:24;;;;;;;9.02;2.88;;;10.30;99.90;;;;;;5190359;27;38098;-82
2024/04/19 06:46:50;;;;;;;13.32;3.00;;;10.30;99.90;;;;;;5190436;27;37964;-81
2024/04/19 06:49:16;;;;;;;10.05;3.03;;;10.40;99.90;;;;;;5182664;27;38611;-81
2024/04/19 06:51:44;;;;;;;9.15;2.83;;;10.40;99.90;;;;;;5183805;27;36186;-81
2024/04/19 06:54:10;;;;;;;10.97;3.23;;;10.40;99.90;;;;;;5179384;27;39600;-80
2024/04/19 06:56:36;;;;;;;14.20;3.53;;;10.40;99.90;;;;;;5176477;27;37857;-80
2024/04/19 06:59:02;;;;;;;14.98;3.17;;;10.40;99.90;;;;;;5175580;27;36723;-79
2024/04/19 07:01:29;;;;;;;14.50;3.17;;;10.40;99.90;;;;;;5178043;27;37449;-80
2024/04/19 07:03:55;;;;;;;12.18;3.88;;;10.40;99.90;;;;;;5169247;27;39253;-80
2024/04/19 07:06:21;;;;;;;16.52;3.17;;;10.40;99.90;;;;;;5175990;27;40585;-80
2024/04/19 07:08:49;;;;;;;11.90;3.17;;;10.40;99.90;;;;;;5176311;27;38933;-80
2024/04/19 07:11:15;;;;;;;8.77;2.83;;;10.50;99.90;;;;;;5185591;27;38572;-80
2024/04/19 07:13:46;;;;;;;10.02;3.47;;;10.60;99.90;;;;;;5187156;27;37920;-81
2024/04/19 07:16:13;;;;;;;11.75;2.72;;;10.60;99.90;;;;;;5183066;27;37732;-80
2024/04/19 07:18:39;;;;;;;16.23;3.42;;;10.60;99.90;;;;;;5178319;27;38496;-80
2024/04/19 07:21:05;;;;;;;11.25;2.53;;;10.50;99.90;;;;;;5173238;27;37527;-79
2024/04/19 07:23:31;;;;;;;16.67;3.15;;;10.60;99.90;;;;;;5175660;27;38596;-79
2024/04/19 07:25:58;;;;;;;10.13;3.33;;;10.60;99.90;;;;;;5172891;27;37905;-79
2024/04/19 07:28:24;;;;;;;10.93;2.90;;;10.60;99.90;;;;;;5173926;27;36471;-81
2024/04/19 07:30:50;;;;;;;12.40;2.90;;;10.60;99.90;;;;;;5173393;27;38535;-81
2024/04/19 07:33:16;;;;;;;8.17;2.43;;;10.50;99.90;;;;;;5172062;27;37489;-79
2024/04/19 07:35:42;;;;;;;9.68;3.75;;;10.60;99.90;;;;;;5173326;27;38131;-79
2024/04/19 07:38:11;;;;;;;18.67;2.90;;;10.60;99.90;;;;;;5175545;27;38077;-80
2024/04/19 07:40:38;;;;;;;13.83;3.27;;;10.50;99.90;;;;;;5177930;27;37126;-79
2024/04/19 07:43:04;;;;;;;15.83;3.23;;;10.60;99.90;;;;;;5178973;27;37590;-79
2024/04/19 07:45:30;;;;;;;10.30;3.07;;;10.70;99.90;;;;;;5180341;27;38315;-80
2024/04/19 07:47:56;;;;;;;12.20;2.30;;;10.70;99.90;;;;;;5180147;27;35970;-81
2024/04/19 07:50:23;;;;;;;7.82;2.65;;;10.70;99.90;;;;;;5173115;27;37344;-80
2024/04/19 07:52:50;;;;;;;7.82;1.92;;;10.70;99.90;;;;;;5178929;27;37901;-79
2024/04/19 07:55:16;;;;;;;8.63;2.00;;;10.70;99.90;;;;;;5175202;27;38815;-81
2024/04/19 07:57:52;;;;;;;8.05;2.50;;;10.70;99.90;;;;;;5185472;27;38449;-80
2024/04/19 08:00:21;;;;;;;6.70;2.20;;;10.70;99.90;;;;;;5182449;27;35633;-79
2024/04/19 08:02:47;;;;;;;10.60;2.70;;;10.70;99.90;;;;;;5180549;27;49287;-81
2024/04/19 08:05:13;;;;;;;10.55;2.25;;;10.70;97.00;;;;;;5177815;27;38287;-79
2024/04/19 08:07:40;;;;;;;8.98;2.05;;;10.70;90.10;;;;;;5205785;27;39697;-80
2024/04/19 08:10:07;;;;;;;10.57;2.03;;;10.70;74.10;;;;;;5175311;27;36082;-80
2024/04/19 08:12:37;;;;;;;8.77;2.20;;;10.70;74.60;;;;;;5170688;27;37853;-80
2024/04/19 08:15:03;;;;;;;15.52;2.90;;;10.70;80.80;;;;;;5178712;27;38652;-80
2024/04/19 08:17:29;;;;;;;10.32;2.40;;;10.50;84.40;;;;;;5171845;27;47193;-80
2024/04/19 08:19:55;;;;;;;10.32;3.22;;;10.40;98.80;;;;;;5171704;27;38092;-80
2024/04/19 08:22:22;;;;;;;8.60;1.60;;;10.30;99.90;;;;;;5177712;27;39376;-80
2024/04/19 08:24:48;;;;;;;10.57;2.03;;;10.20;99.90;;;;;;5170727;27;38001;-80
2024/04/19 08:27:15;;;;;;;7.90;2.07;;;10.10;99.90;;;;;;5176524;27;37696;-80
2024/04/19 08:29:41;;;;;;;11.38;2.13;;;10.10;99.90;;;;;;5172394;27;37805;-80
2024/04/19 08:32:09;;;;;;;9.85;2.50;;;10.10;99.90;;;;;;5175868;27;37390;-79
2024/04/19 08:34:35;;;;;;;9.48;1.95;;;10.30;99.90;;;;;;5173162;27;37218;-81
2024/04/19 08:37:02;;;;;;;13.20;2.75;;;10.40;99.90;;;;;;5183828;27;38053;-80
2024/04/19 08:39:28;;;;;;;17.60;3.15;;;10.60;99.90;;;;;;5178503;27;37497;-79
2024/04/19 08:42:02;;;;;;;10.80;2.30;;;10.70;99.90;;;;;;5168478;27;37775;-79
2024/04/19 08:44:28;;;;;;;11.32;1.77;;;10.50;99.90;;;;;;5174383;27;52087;-81
2024/04/19 08:46:55;;;;;;;8.00;1.57;;;10.10;99.90;;;;;;5180506;27;37967;-81
2024/04/19 08:49:23;;;;;;;8.63;2.00;;;9.80;99.90;;;;;;5186734;27;38597;-81
2024/04/19 08:51:51;;;;;;;22.03;3.83;;;9.80;99.90;;;;;;5183375;27;38070;-82
2024/04/19 08:54:17;;;;;;;17.42;2.53;;;9.80;99.90;;;;;;5179513;27;38850;-81
2024/04/19 08:56:45;;;;;;;11.77;2.38;;;10.00;99.90;;;;;;5179648;27;38218;-80
2024/04/19 08:59:11;;;;;;;10.07;2.10;;;10.00;99.90;;;;;;5178241;27;40468;-78
2024/04/19 09:01:37;;;;;;;9.10;1.90;;;10.00;99.90;;;;;;5175742;27;39521;-81
2024/04/19 09:04:03;;;;;;;9.93;1.98;;;10.10;99.90;;;;;;5180818;27;37169;-80
2024/04/19 09:06:30;;;;;;;12.43;2.60;;;10.10;99.90;;;;;;5182017;27;37927;-79
2024/04/19 09:08:56;;;;;;;17.88;2.80;;;10.10;99.90;;;;;;5176077;27;36691;-79
2024/04/19 09:11:23;;;;;;;15.00;3.72;;;10.10;99.90;;;;;;5175011;27;37859;-79
2024/04/19 09:13:52;;;;;;;14.60;2.15;;;10.20;99.90;;;;;;5181310;27;37065;-80
2024/04/19 09:16:18;;;;;;;18.95;3.05;;;10.00;99.90;;;;;;5178310;27;39275;-79
2024/04/19 09:18:49;;;;;;;10.63;2.45;;;10.00;99.90;;;;;;5176184;27;38934;-79
2024/04/19 09:21:17;;;;;;;11.98;2.15;;;10.00;99.90;;;;;;5174104;27;39091;-80
2024/04/19 09:23:43;;;;;;;17.02;2.80;;;10.00;99.90;;;;;;5166503;27;38986;-79
2024/04/19 09:26:09;;;;;;;17.02;3.13;;;10.00;99.90;;;;;;5168247;27;39732;-79
2024/04/19 09:28:35;;;;;;;16.73;3.72;;;10.10;99.90;;;;;;5170685;27;37622;-79
2024/04/19 09:31:01;;;;;;;12.02;2.22;;;10.30;99.90;;;;;;5169071;27;40181;-79
2024/04/19 09:33:27;;;;;;;15.10;3.20;;;10.50;99.90;;;;;;5171186;27;38210;-79
2024/04/19 09:35:57;;;;;;;15.10;2.65;;;10.50;99.90;;;;;;5171731;27;38011;-79
2024/04/19 09:38:24;;;;;;;13.68;2.90;;;10.60;99.90;;;;;;5168764;27;38784;-79
2024/04/19 09:40:50;;;;;;;12.50;2.92;;;10.70;99.90;;;;;;5172196;27;39659;-79
2024/04/19 09:43:22;;;;;;;16.33;3.70;;;10.90;99.90;;;;;;5162895;27;38824;-80
2024/04/19 09:45:55;;;;;;;16.67;2.65;;;11.30;99.90;;;;;;5174285;27;36911;-79
2024/04/19 09:48:23;;;;;;;;;;;11.50;69.00;;;;;;5182408;27;37634;-80
2024/04/19 09:50:53;;;;;;;11.75;2.05;;;11.40;64.00;;;;;;5181531;27;37746;-79
2024/04/19 09:53:33;;;;;;;23.98;3.03;;;11.40;50.20;;;;;;5174868;27;39055;-80
2024/04/19 09:56:35;;;;;;;14.43;2.38;;;11.20;42.90;;;;;;5190723;27;37148;-81
2024/04/19 09:59:02;;;;;;;14.95;2.90;;;11.00;52.90;;;;;;5190242;27;47721;-78
2024/04/19 10:01:28;;;;;;;16.27;2.97;;;11.00;43.50;;;;;;5191088;27;47433;-79
2024/04/19 10:03:55;;;;;;;17.85;3.53;;;11.20;72.10;;;;;;5190478;27;39375;-81
2024/04/19 10:06:25;;;;;;;20.55;3.53;;;11.30;41.50;;;;;;5188621;27;38638;-80
2024/04/19 10:08:52;;;;;;;16.15;2.63;;;11.40;27.40;;;;;;5182996;27;38052;-80
2024/04/19 10:11:19;;;;;;;19.52;2.95;;;11.40;24.80;;;;;;5187821;27;40336;-80
2024/04/19 10:13:45;;;;;;;20.98;3.33;;;11.40;11.90;;;;;;5187318;27;38008;-80
2024/04/19 10:16:11;;;;;;;18.60;2.92;;;11.40;13.00;;;;;;5189988;27;38186;-81
2024/04/19 10:18:38;;;;;;;16.40;3.15;;;11.50;10.80;;;;;;5189781;27;36917;-81
2024/04/19 10:21:05;;;;;;;18.75;2.65;;;11.60;1.00;;;;;;5188102;27;39015;-81
2024/04/19 10:23:38;;;;;;;13.25;2.22;;;11.50;1.90;;;;;;5193067;27;39201;-80
2024/04/19 10:26:05;;;;;;;13.45;3.45;;;11.50;6.90;;;;;;5193564;27;36475;-80
2024/04/19 10:28:32;;;;;;;14.10;3.33;;;11.30;5.00;;;;;;5195857;27;36940;-81
2024/04/19 10:30:58;;;;;;;13.85;2.13;;;11.20;33.70;;;;;;5189757;27;40168;-79
2024/04/19 10:33:25;;;;;;;16.70;2.47;;;11.10;1.00;;;;;;5186003;27;37121;-79
2024/04/19 10:35:52;;;;;;;11.55;2.50;;;11.00;1.00;;;;;;5174076;27;36646;-79
2024/04/19 10:38:19;;;;;;;12.75;2.75;;;11.10;1.00;;;;;;5174301;27;35940;-80
2024/04/19 10:40:46;;;;;;;16.98;2.85;;;11.20;1.00;;;;;;5179674;27;37684;-80
2024/04/19 10:43:12;;;;;;;18.88;3.47;;;11.20;1.00;;;;;;5174335;27;38749;-81
2024/04/19 10:45:38;;;;;;;13.70;2.70;;;11.30;1.00;;;;;;5187965;27;36859;-81
2024/04/19 10:48:06;;;;;;;15.82;3.65;;;11.30;1.00;;;;;;5184689;27;35567;-81
2024/04/19 10:50:34;;;;;;;14.48;2.70;;;11.50;1.70;;;;;;5191554;27;38815;-80
2024/04/19 10:53:00;;;;;;;18.92;3.15;;;11.70;1.00;;;;;;5182364;27;37282;-80
2024/04/19 10:55:27;;;;;;;17.08;2.72;;;11.80;1.00;;;;;;5180126;27;38672;-80
2024/04/19 10:57:59;;;;;;;17.40;3.42;;;11.80;1.00;;;;;;5178048;27;37365;-80
2024/04/19 11:00:32;;;;;;;12.65;2.70;;;11.80;1.00;;;;;;5175962;27;38790;-80
2024/04/19 11:02:58;;;;;;;13.43;3.03;;;12.00;1.00;;;;;;5184979;27;39625;-80
2024/04/19 11:05:25;;;;;;;22.95;2.90;;;12.00;1.00;;;;;;5182430;27;37937;-81
2024/04/19 11:07:51;;;;;;;17.67;3.13;;;11.90;1.00;;;;;;5178624;27;37069;-81
2024/04/19 11:10:17;;;;;;;19.33;2.63;;;11.80;1.00;;;;;;5174817;27;39567;-80
2024/04/19 11:12:44;;;;;;;15.00;3.08;;;11.50;1.00;;;;;;5178703;27;38572;-80
2024/04/19 11:15:10;;;;;;;27.00;4.22;;;11.40;1.00;;;;;;5179504;27;37264;-79
2024/04/19 11:17:39;;;;;;;18.63;3.13;;;11.40;1.00;;;;;;5181590;27;37571;-79
2024/04/19 11:20:05;;;;;;;20.33;3.20;;;11.50;1.00;;;;;;5180380;27;39255;-79
2024/04/19 11:22:36;;;;;;;17.17;2.42;;;11.60;1.00;;;;;;5179909;27;49531;-80
2024/04/19 11:25:03;;;;;;;22.40;3.25;;;11.80;1.00;;;;;;5178688;27;38637;-81
2024/04/19 11:27:30;;;;;;;19.00;3.13;;;12.00;1.00;;;;;;5181863;27;35662;-80
2024/04/19 11:29:57;;;;;;;18.10;3.72;;;11.70;1.00;;;;;;5181203;27;38101;-80
2024/04/19 11:32:24;;;;;;;23.50;3.53;;;11.60;1.00;;;;;;5174072;27;38628;-80
2024/04/19 11:34:50;;;;;;;16.08;2.55;;;11.60;1.00;;;;;;5176038;27;37275;-80
2024/04/19 11:37:16;;;;;;;15.20;2.17;;;11.70;1.00;;;;;;5170692;27;35907;-80
2024/04/19 11:39:45;;;;;;;13.05;2.75;;;11.80;1.00;;;;;;5176016;27;39758;-80
2024/04/19 11:42:12;;;;;;;20.08;2.03;;;11.90;1.00;;;;;;5182815;27;38807;-79
2024/04/19 11:44:39;;;;;;;10.90;2.10;;;11.70;1.00;;;;;;5180308;27;37902;-80
2024/04/19 11:47:05;;;;;;;11.88;2.03;;;12.00;1.00;;;;;;5176625;27;36106;-78
2024/04/19 11:49:32;;;;;;;7.13;1.20;;;12.20;1.00;;;;;;5170383;27;38489;-80
2024/04/19 11:52:00;;;;;;;4.75;1.20;;;12.40;1.00;;;;;;5173205;27;20031;-79
2024/04/19 11:54:31;;;;;;;10.27;1.58;;;12.20;1.00;;;;;;5175901;27;39171;-79
2024/04/19 11:56:58;;;;;;;8.38;1.48;;;12.10;1.00;;;;;;5182336;27;38222;-81
2024/04/19 11:59:24;;;;;;;8.93;1.08;;;12.00;1.00;;;;;;5180890;27;39009;-80
2024/04/19 12:01:52;;;;;;;11.07;1.50;;;12.00;1.00;;;;;;5182722;27;37308;-79
2024/04/19 12:04:22;;;;;;;12.43;2.05;;;12.20;1.00;;;;;;5168918;27;36847;-79
2024/04/19 12:06:51;;;;;;;10.23;2.03;;;12.20;1.00;;;;;;5178183;27;36669;-84
2024/04/19 12:11:48;;;;;;;17.67;2.60;;;12.20;1.00;;;;;;5129412;27;20046;-79
2024/04/19 12:14:14;;;;;;;8.63;1.70;;;12.10;1.00;;;;;;5121467;27;38011;-79
2024/04/19 12:16:40;;;;;;;12.95;1.85;;;11.70;99.90;;;;;;5123638;27;37160;-76
2024/04/19 12:19:06;;;;;;;11.45;1.92;;;11.60;99.90;;;;;;5115955;27;39677;-79
2024/04/19 12:21:33;;;;;;;13.75;2.38;;;11.90;1.00;;;;;;5119471;27;37650;-81
2024/04/19 12:23:59;;;;;;;12.07;2.95;;;12.50;1.00;;;;;;5122220;27;37922;-78
2024/04/19 12:26:27;;;;;;;16.30;2.65;;;12.80;1.00;;;;;;5109653;27;36372;-80
2024/04/19 12:29:03;;;;;;;12.05;2.00;;;12.90;1.00;;;;;;5098419;27;39570;-81
2024/04/19 12:32:07;;;;;;;9.65;2.00;;;12.60;1.00;;;;;;5082486;28;46778;-83
2024/04/19 12:39:46;;;;;;;8.75;1.55;;;11.60;99.90;;;;;;6270339;22;20023;-81
2024/04/19 12:42:36;;;;;;;10.57;1.80;;;11.60;99.90;;;;;;5145542;27;36743;-84
2024/04/19 12:56:51;;;;;;;11.65;2.33;;;12.30;99.90;;;;;;6062807;22;20408;-83
2024/04/19 13:04:52;;;;;;;12.63;2.53;;;11.90;1.00;;;;;;5186081;22;19945;-82
2024/04/19 13:07:31;;;;;;;16.90;2.70;;;11.60;1.00;;;;;;5129045;27;38621;-83
2024/04/19 13:09:59;;;;;;;15.10;2.30;;;11.70;1.00;;;;;;5225351;22;38819;-82
2024/04/19 13:39:36;;;;;;;;;;;11.70;99.90;;;;;;5932834;22;20048;31
2024/04/19 13:45:08;;;;;;;21.20;3.30;;;11.10;34.60;;;;;;5574015;22;20076;-79